Аэропорт: Адлер. Сочи

ICAO: URSS

METAR:
2021-07-28 12:30:00
URSS 281230Z 23004MPS 200V270 9999 SCT023 26/21 Q1011 R02/010070 R06/010070 NOSIG RMK R06/25004MPS MT OBSC QFE757
METAR:
2021-07-28 10:57:00
TAF URSS 281057Z 2812/2912 VRB01MPS 9999 FEW030CB TEMPO 2812/2817 28003G09MPS BECMG 2817/2818 05003G08MPS SCT050CB SCT100 PROB40 TEMPO 2818/2901 -TSRA BECMG 2905/2906 23003G08MPS FEW040 TEMPO 2906/2911 18003G09MPS BECMG 2911/2912 27003G08MPS FEW040TCU